createdAt,value
2024-02-24T09:01:44.778Z,23.01
2024-02-24T09:02:22.318Z,23.20
2024-02-24T09:03:24.210Z,23.28
2024-02-24T09:04:22.224Z,23.33
2024-02-24T09:05:22.285Z,23.36
2024-02-24T09:06:22.323Z,23.39
2024-02-24T09:07:22.359Z,23.41
2024-02-24T09:08:22.256Z,23.42
2024-02-24T09:09:22.249Z,23.44
2024-02-24T09:10:22.261Z,23.46
2024-02-24T09:11:22.315Z,23.47
2024-02-24T09:12:22.337Z,23.48
2024-02-24T09:13:22.279Z,23.49
2024-02-24T09:14:22.274Z,23.49
2024-02-24T09:15:22.253Z,23.50
2024-02-24T09:16:22.277Z,23.51
2024-02-24T09:17:22.293Z,23.52
2024-02-24T09:18:22.351Z,23.53
2024-02-24T09:19:22.278Z,23.53
2024-02-24T09:20:22.319Z,23.54
2024-02-24T09:21:22.266Z,23.55
2024-02-24T09:22:22.323Z,23.54
2024-02-24T09:23:22.323Z,23.56
2024-02-24T09:24:22.321Z,23.56
2024-02-24T09:25:22.274Z,23.57
2024-02-24T09:26:22.308Z,23.56
2024-02-24T09:27:22.303Z,23.57
2024-02-24T09:28:22.299Z,23.58
2024-02-24T09:29:22.293Z,23.58
2024-02-24T09:30:22.281Z,23.57
2024-02-24T09:31:22.303Z,23.58
2024-02-24T09:32:22.318Z,23.58
2024-02-24T09:33:22.528Z,23.59
2024-02-24T09:34:22.433Z,23.60
2024-02-24T09:35:22.333Z,23.59
2024-02-24T09:36:22.336Z,23.60
2024-02-24T09:37:22.307Z,23.60
2024-02-24T09:38:22.298Z,23.60
2024-02-24T09:39:22.318Z,23.60
2024-02-24T09:40:22.322Z,23.60
2024-02-24T09:41:22.351Z,23.60
2024-02-24T09:42:22.301Z,23.60
2024-02-24T09:43:29.657Z,23.58
2024-02-24T09:44:29.697Z,23.59
2024-02-24T09:45:29.646Z,23.60
2024-02-24T09:46:29.695Z,23.60
2024-02-24T09:47:29.786Z,23.60
2024-02-24T09:48:29.747Z,23.61
2024-02-24T09:49:29.729Z,23.60
2024-02-24T09:50:29.692Z,23.61
2024-02-24T09:51:29.674Z,23.61
2024-02-24T09:52:29.836Z,23.61
2024-02-24T09:53:29.718Z,23.62
2024-02-24T09:54:29.682Z,23.62
2024-02-24T09:55:29.734Z,23.62
2024-02-24T09:56:29.678Z,23.62
2024-02-24T09:57:29.717Z,23.62
2024-02-24T09:58:29.669Z,23.62
2024-02-24T09:59:29.735Z,23.63
2024-02-24T10:00:29.705Z,23.62
2024-02-24T10:01:29.721Z,23.62
2024-02-24T10:02:29.746Z,23.63
2024-02-24T10:03:29.784Z,23.63
2024-02-24T10:04:29.704Z,23.63
2024-02-24T10:05:29.812Z,23.63
2024-02-24T10:06:29.738Z,23.64
2024-02-24T10:07:29.728Z,23.64
2024-02-24T10:08:29.745Z,23.64
2024-02-24T10:09:29.711Z,23.63
2024-02-24T10:10:29.824Z,23.64
2024-02-24T10:11:29.804Z,23.64
2024-02-24T10:12:29.726Z,23.64
2024-02-24T10:13:29.718Z,23.65
2024-02-24T10:14:29.752Z,23.65
2024-02-24T10:15:29.699Z,23.64
2024-02-24T10:16:29.708Z,23.64
2024-02-24T10:17:29.797Z,23.65
2024-02-24T10:24:47.308Z,23.45
2024-02-24T10:25:29.967Z,23.52
2024-02-24T10:26:29.981Z,23.58
2024-02-24T10:27:29.965Z,23.60
2024-02-24T10:28:29.978Z,23.63
2024-02-24T10:29:30.039Z,23.64
2024-02-24T10:30:30.034Z,23.66
2024-02-24T10:31:30.004Z,23.67
2024-02-24T10:32:30.085Z,23.67
2024-02-24T10:33:30.979Z,23.68
2024-02-24T10:34:30.215Z,23.69
2024-02-24T10:35:30.277Z,23.70
2024-02-24T10:36:30.091Z,23.71
2024-02-24T10:37:44.003Z,23.70
2024-02-24T10:38:37.023Z,23.71
2024-02-24T10:39:31.139Z,23.71
2024-02-24T10:40:30.111Z,23.72
2024-02-24T10:41:31.402Z,23.73
2024-02-24T10:42:30.124Z,23.74
2024-02-24T10:43:30.179Z,23.74
2024-02-24T10:44:30.229Z,23.74
2024-02-24T10:45:30.120Z,23.75
2024-02-24T10:46:30.119Z,23.77
2024-02-24T10:47:30.146Z,23.78
2024-02-24T10:48:30.395Z,23.78
2024-02-24T10:49:30.279Z,23.79
2024-02-24T10:50:30.168Z,23.80
2024-02-24T10:51:30.180Z,23.80
2024-02-24T10:52:30.104Z,23.81
2024-02-24T10:53:30.151Z,23.81
2024-02-24T10:54:30.151Z,23.81
2024-02-24T10:55:30.164Z,23.81
2024-02-24T10:56:30.175Z,23.82
2024-02-24T10:57:30.138Z,23.83
2024-02-24T10:58:30.141Z,23.84
2024-02-24T10:59:30.224Z,23.84
2024-02-24T11:00:30.169Z,23.84
2024-02-24T11:01:30.206Z,23.86
2024-02-24T11:02:30.194Z,23.86
2024-02-24T11:03:30.198Z,23.87
2024-02-24T11:04:30.360Z,23.88
2024-02-24T11:05:30.193Z,23.89
2024-02-24T11:06:31.862Z,23.89
2024-02-24T11:07:30.208Z,23.90
2024-02-24T11:08:30.222Z,23.91
2024-02-24T11:09:30.192Z,23.92
2024-02-24T11:10:30.156Z,23.93
2024-02-24T11:11:30.258Z,23.93
2024-02-24T11:12:31.511Z,23.94
2024-02-24T11:13:30.163Z,23.95
2024-02-24T11:14:30.184Z,23.97
2024-02-24T11:15:30.185Z,23.97
2024-02-24T11:16:30.229Z,23.98
2024-02-24T11:17:30.352Z,23.99
2024-02-24T11:18:33.202Z,24.00
2024-02-24T11:19:30.376Z,24.01
2024-02-24T11:20:30.462Z,24.02
2024-02-24T11:21:30.369Z,24.04
2024-02-24T11:22:30.362Z,24.05
2024-02-24T11:23:30.418Z,24.06
2024-02-24T11:24:30.401Z,24.07
2024-02-24T11:25:30.371Z,24.08
2024-02-24T11:26:30.435Z,24.09
2024-02-24T11:27:30.370Z,24.11
2024-02-24T11:28:30.409Z,24.12
2024-02-24T11:29:30.430Z,24.14
2024-02-24T11:30:30.385Z,24.15
2024-02-24T11:31:30.443Z,24.17
2024-02-24T11:32:30.490Z,24.18
2024-02-24T11:33:30.726Z,24.20
2024-02-24T11:34:30.459Z,24.22
2024-02-24T11:35:30.424Z,24.23
2024-02-24T11:36:30.389Z,24.25
2024-02-24T11:37:30.405Z,24.25
2024-02-24T11:38:30.414Z,24.27
2024-02-24T11:39:30.411Z,24.28
2024-02-24T11:40:30.411Z,24.30
2024-02-24T11:41:30.428Z,24.32
2024-02-24T11:42:30.426Z,24.33
2024-02-24T11:43:30.401Z,24.33
2024-02-24T11:44:30.435Z,24.35
2024-02-24T11:45:30.422Z,24.37
2024-02-24T11:46:30.443Z,24.39
2024-02-24T11:47:30.653Z,24.40
2024-02-24T11:48:30.672Z,24.42
2024-02-24T11:49:30.504Z,24.43
2024-02-24T11:50:30.414Z,24.44
2024-02-24T11:51:30.443Z,24.46
2024-02-24T11:52:30.447Z,24.47
2024-02-24T11:53:30.428Z,24.49
2024-02-24T11:54:30.460Z,24.50
2024-02-24T11:55:30.491Z,24.52
2024-02-24T11:56:30.535Z,24.53
2024-02-24T11:57:30.571Z,24.55
2024-02-24T11:58:30.647Z,24.57
2024-02-24T11:59:30.701Z,24.58
2024-02-24T12:00:30.693Z,24.59
2024-02-24T12:01:30.814Z,24.60
2024-02-24T12:02:30.789Z,24.61
2024-02-24T12:03:30.779Z,24.61
2024-02-24T12:04:30.959Z,24.62
2024-02-24T12:05:30.947Z,24.63
2024-02-24T12:06:30.918Z,24.64
2024-02-24T12:07:30.979Z,24.65
2024-02-24T12:08:31.016Z,24.66
2024-02-24T12:09:31.094Z,24.66
2024-02-24T12:10:31.135Z,24.67
2024-02-24T12:11:31.169Z,24.69
2024-02-24T12:12:31.154Z,24.70
2024-02-24T12:13:31.187Z,24.71
2024-02-24T12:14:31.262Z,24.72
2024-02-24T12:15:31.300Z,24.73
2024-02-24T12:16:31.318Z,24.73
2024-02-24T12:17:31.443Z,24.75
2024-02-24T12:18:31.608Z,24.75
2024-02-24T12:19:31.496Z,24.76
2024-02-24T12:20:31.489Z,24.77
2024-02-24T12:21:31.470Z,24.78
2024-02-24T12:22:31.499Z,24.79
2024-02-24T12:23:31.565Z,24.79
2024-02-24T12:24:31.534Z,24.79
2024-02-24T12:25:31.582Z,24.80
2024-02-24T12:26:31.633Z,24.80
2024-02-24T12:27:31.638Z,24.80
2024-02-24T12:28:31.647Z,24.81
2024-02-24T12:29:31.735Z,24.81
2024-02-24T12:30:31.692Z,24.82
2024-02-24T12:31:31.695Z,24.82
2024-02-24T12:32:31.790Z,24.84
2024-02-24T12:33:31.892Z,24.84
2024-02-24T12:34:31.817Z,24.84
2024-02-24T12:35:31.842Z,24.84
2024-02-24T12:36:31.841Z,24.86
2024-02-24T12:37:31.853Z,24.86
2024-02-24T12:38:31.941Z,24.87
2024-02-24T12:39:31.915Z,24.87
2024-02-24T12:40:31.888Z,24.86
2024-02-24T12:41:32.009Z,24.87
2024-02-24T12:42:31.959Z,24.87
2024-02-24T12:43:31.990Z,24.87
2024-02-24T12:44:32.087Z,24.88
2024-02-24T12:45:32.015Z,24.88
2024-02-24T12:46:32.049Z,24.88
2024-02-24T12:47:36.475Z,24.89
2024-02-24T12:48:32.218Z,24.89
2024-02-24T12:49:32.075Z,24.90
2024-02-24T12:50:32.074Z,24.90
2024-02-24T12:51:32.065Z,24.90
2024-02-24T12:52:32.073Z,24.90
2024-02-24T12:53:32.105Z,24.92
2024-02-24T12:54:32.086Z,24.92
2024-02-24T12:55:32.072Z,24.93
2024-02-24T12:56:32.102Z,24.94
2024-02-24T12:57:32.081Z,24.94
2024-02-24T12:58:32.064Z,24.95
2024-02-24T12:59:32.157Z,24.96
2024-02-24T13:00:32.164Z,24.97
2024-02-24T13:01:32.080Z,24.96
2024-02-24T13:02:32.129Z,24.97
2024-02-24T13:03:32.100Z,24.97
2024-02-24T13:04:32.074Z,24.98
2024-02-24T13:05:32.303Z,24.99
2024-02-24T13:06:32.267Z,24.99
2024-02-24T13:07:32.150Z,25.00
2024-02-24T13:08:32.367Z,25.02
2024-02-24T13:09:32.315Z,25.04
2024-02-24T13:10:32.444Z,25.08
2024-02-24T13:11:32.514Z,25.09
2024-02-24T13:12:32.544Z,25.11
2024-02-24T13:13:32.567Z,25.12
2024-02-24T13:14:32.662Z,25.14
2024-02-24T13:15:32.721Z,25.15
2024-02-24T13:16:32.744Z,25.17
2024-02-24T13:17:32.909Z,25.18
2024-02-24T13:18:33.135Z,25.19
2024-02-24T13:19:32.976Z,25.20
2024-02-24T13:20:33.042Z,25.21
2024-02-24T13:21:33.052Z,25.22
2024-02-24T13:22:33.109Z,25.23
2024-02-24T13:23:33.212Z,25.24
2024-02-24T13:24:33.221Z,25.25
2024-02-24T13:25:33.298Z,25.25
2024-02-24T13:26:33.359Z,25.26
2024-02-24T13:27:33.406Z,25.26
2024-02-24T13:28:33.430Z,25.26
2024-02-24T13:29:33.549Z,25.26
2024-02-24T13:30:33.524Z,25.27
2024-02-24T13:31:33.592Z,25.27
2024-02-24T13:32:33.828Z,25.26
2024-02-24T13:33:34.128Z,25.27
2024-02-24T13:34:33.818Z,25.28
2024-02-24T13:35:34.017Z,25.27
2024-02-24T13:36:33.885Z,25.28
2024-02-24T13:37:33.941Z,25.27
2024-02-24T13:38:33.995Z,25.28
2024-02-24T13:39:34.037Z,25.27
2024-02-24T13:40:34.112Z,25.28
2024-02-24T13:41:34.319Z,25.28
2024-02-24T13:42:34.210Z,25.29
2024-02-24T13:43:34.296Z,25.29
2024-02-24T13:44:34.411Z,25.30
2024-02-24T13:45:34.373Z,25.30
2024-02-24T13:46:34.408Z,25.30
2024-02-24T13:47:34.658Z,25.29
2024-02-24T13:48:34.728Z,25.30
2024-02-24T13:49:34.655Z,25.29
2024-02-24T13:50:34.644Z,25.28
2024-02-24T13:51:34.668Z,25.29
2024-02-24T13:52:34.719Z,25.28
2024-02-24T13:53:34.804Z,25.28
2024-02-24T13:54:34.805Z,25.27
2024-02-24T13:55:34.869Z,25.27
2024-02-24T13:56:34.926Z,25.27
2024-02-24T13:57:34.970Z,25.27
2024-02-24T13:58:35.022Z,25.26
2024-02-24T13:59:35.074Z,25.27
2024-02-24T14:00:35.214Z,25.25
